createdAt,value
2023-02-08T00:00:23.147Z,103270.81
2023-02-08T00:02:51.222Z,103272.69
2023-02-08T00:05:19.542Z,103263.06
2023-02-08T00:07:48.528Z,103266.59
2023-02-08T00:10:16.180Z,103263.13
2023-02-08T00:12:43.842Z,103261.19
2023-02-08T00:15:11.507Z,103263.44
2023-02-08T00:17:39.406Z,103262.38
2023-02-08T00:20:07.650Z,103262.00
2023-02-08T00:22:35.275Z,103259.63
2023-02-08T00:25:04.367Z,103255.22
2023-02-08T00:27:32.060Z,103250.63
2023-02-08T00:29:59.740Z,103264.16
2023-02-08T00:32:27.414Z,103270.44
2023-02-08T00:34:55.102Z,103267.97
2023-02-08T00:37:22.943Z,103281.56
2023-02-08T00:39:51.033Z,103270.25
2023-02-08T00:42:20.071Z,103269.81
2023-02-08T00:44:47.736Z,103265.47
2023-02-08T00:47:15.433Z,103263.84
2023-02-08T00:49:43.100Z,103261.94
2023-02-08T00:52:10.767Z,103253.00
2023-02-08T00:54:38.557Z,103252.88
2023-02-08T00:57:06.239Z,103253.47
2023-02-08T00:59:35.368Z,103249.31
2023-02-08T01:02:03.112Z,103248.44
2023-02-08T01:04:30.809Z,103244.72
2023-02-08T01:06:58.519Z,103243.09
2023-02-08T01:09:26.241Z,103242.00
2023-02-08T01:11:53.965Z,103239.19
2023-02-08T01:14:21.625Z,103241.75
2023-02-08T01:16:50.753Z,103240.13
2023-02-08T01:19:18.431Z,103244.72
2023-02-08T01:21:46.171Z,103242.28
2023-02-08T01:24:13.913Z,103236.09
2023-02-08T01:26:41.730Z,103239.19
2023-02-08T01:29:09.475Z,103238.16
2023-02-08T01:31:38.711Z,103244.91
2023-02-08T01:34:08.916Z,103248.56
2023-02-08T01:36:37.304Z,103241.75
2023-02-08T01:39:06.136Z,103240.13
2023-02-08T01:41:35.738Z,103240.25
2023-02-08T01:44:07.685Z,103244.22
2023-02-08T01:46:37.229Z,103244.25
2023-02-08T01:49:09.454Z,103244.38
2023-02-08T01:51:39.496Z,103247.50
2023-02-08T01:54:08.703Z,103250.16
2023-02-08T01:56:38.903Z,103240.59
2023-02-08T01:59:10.297Z,103237.19
2023-02-08T02:01:39.973Z,103238.94
2023-02-08T02:04:10.126Z,103240.44
2023-02-08T02:06:42.187Z,103241.34
2023-02-08T02:09:26.086Z,103234.41
2023-02-08T02:11:55.853Z,103233.34
2023-02-08T02:14:24.518Z,103232.66
2023-02-08T02:16:52.245Z,103232.59
2023-02-08T02:19:27.657Z,103231.31
2023-02-08T02:22:05.251Z,103226.09
2023-02-08T02:25:08.582Z,103222.69
2023-02-08T02:27:45.311Z,103226.03
2023-02-08T02:31:01.322Z,103222.94
2023-02-08T02:33:46.896Z,103222.13
2023-02-08T02:36:19.451Z,103224.69
2023-02-08T02:38:58.076Z,103220.34
2023-02-08T02:41:50.481Z,103214.19
2023-02-08T02:44:23.380Z,103215.75
2023-02-08T02:46:56.837Z,103222.72
2023-02-08T02:49:28.237Z,103216.63
2023-02-08T02:51:59.926Z,103212.22
2023-02-08T02:54:32.068Z,103217.38
2023-02-08T02:57:02.840Z,103219.69
2023-02-08T02:59:33.981Z,103214.25
2023-02-08T03:02:03.626Z,103218.59
2023-02-08T03:04:54.157Z,103218.66
2023-02-08T03:07:47.163Z,103218.72
2023-02-08T03:10:30.079Z,103212.91
2023-02-08T03:13:02.665Z,103214.72
2023-02-08T03:15:36.964Z,103226.72
2023-02-08T03:18:10.796Z,103223.06
2023-02-08T03:20:42.934Z,103227.28
2023-02-08T03:23:14.272Z,103223.06
2023-02-08T03:25:48.727Z,103229.97
2023-02-08T03:28:21.661Z,103233.25
2023-02-08T03:30:55.379Z,103233.03
2023-02-08T03:33:26.771Z,103228.09
2023-02-08T03:36:00.593Z,103228.97
2023-02-08T03:38:31.165Z,103232.28
2023-02-08T03:41:01.213Z,103225.91
2023-02-08T03:43:31.500Z,103229.16
2023-02-08T03:46:06.403Z,103226.38
2023-02-08T03:48:34.805Z,103228.00
2023-02-08T03:51:04.899Z,103233.06
2023-02-08T03:53:38.302Z,103230.22
2023-02-08T03:56:09.969Z,103231.97
2023-02-08T03:58:43.083Z,103235.66
2023-02-08T04:01:15.299Z,103236.69
2023-02-08T04:03:45.615Z,103241.22
2023-02-08T04:06:14.701Z,103237.97
2023-02-08T04:08:42.364Z,103234.91
2023-02-08T04:11:10.048Z,103235.38
2023-02-08T04:13:37.912Z,103238.38
2023-02-08T04:16:06.059Z,103241.38
2023-02-08T04:18:33.729Z,103236.25
2023-02-08T04:21:01.382Z,103230.94
2023-02-08T04:23:30.423Z,103233.53
2023-02-08T04:25:58.117Z,103231.91
2023-02-08T04:28:25.867Z,103229.34
2023-02-08T04:30:56.774Z,103240.44
2023-02-08T04:33:24.509Z,103229.25
2023-02-08T04:35:52.235Z,103232.56
2023-02-08T04:38:19.933Z,103230.00
2023-02-08T04:40:48.935Z,103234.34
2023-02-08T04:43:16.569Z,103233.16
2023-02-08T04:45:44.291Z,103231.69
2023-02-08T04:48:12.140Z,103231.69
2023-02-08T04:50:40.381Z,103224.47
2023-02-08T04:53:08.260Z,103223.44
2023-02-08T04:55:36.358Z,103217.34
2023-02-08T04:58:05.639Z,103219.91
2023-02-08T05:00:33.347Z,103214.78
2023-02-08T05:03:01.009Z,103209.63
2023-02-08T05:05:28.778Z,103213.88
2023-02-08T05:07:56.484Z,103215.50
2023-02-08T05:10:24.299Z,103211.97
2023-02-08T05:12:52.005Z,103212.78
2023-02-08T05:15:21.151Z,103205.94
2023-02-08T05:17:48.872Z,103217.13
2023-02-08T05:20:16.637Z,103215.22
2023-02-08T05:22:44.270Z,103215.22
2023-02-08T05:25:12.179Z,103218.81
2023-02-08T05:27:39.992Z,103220.81
2023-02-08T05:30:08.763Z,103218.09
2023-02-08T05:32:37.800Z,103214.47
2023-02-08T05:35:05.896Z,103213.06
2023-02-08T05:37:33.555Z,103212.56
2023-02-08T05:40:01.253Z,103204.91
2023-02-08T05:42:28.985Z,103200.56
2023-02-08T05:44:56.787Z,103204.19
2023-02-08T05:47:24.503Z,103202.44
2023-02-08T05:49:53.552Z,103201.63
2023-02-08T05:52:21.276Z,103196.28
2023-02-08T05:54:48.925Z,103192.13
2023-02-08T05:57:16.570Z,103196.81
2023-02-08T05:59:44.194Z,103205.56
2023-02-08T06:02:11.827Z,103208.13
2023-02-08T06:04:39.637Z,103206.94
2023-02-08T06:07:08.737Z,103194.06
2023-02-08T06:09:36.402Z,103201.25
2023-02-08T06:12:04.195Z,103189.84
2023-02-08T06:14:31.826Z,103187.47
2023-02-08T06:16:59.527Z,103184.97
2023-02-08T06:19:27.229Z,103180.22
2023-02-08T06:21:56.494Z,103184.28
2023-02-08T06:24:25.829Z,103193.91
2023-02-08T06:26:53.536Z,103186.19
2023-02-08T06:29:21.259Z,103187.16
2023-02-08T06:31:49.142Z,103193.50
2023-02-08T06:34:16.844Z,103189.19
2023-02-08T06:36:45.385Z,103186.78
2023-02-08T06:39:13.184Z,103188.63
2023-02-08T06:41:42.191Z,103180.97
2023-02-08T06:44:09.957Z,103193.84
2023-02-08T06:46:37.624Z,103193.84
2023-02-08T06:49:05.308Z,103197.09
2023-02-08T06:51:32.995Z,103195.81
2023-02-08T06:54:00.626Z,103192.03
2023-02-08T06:56:28.328Z,103198.53
2023-02-08T06:58:57.538Z,103193.50
2023-02-08T07:01:25.329Z,103198.25
2023-02-08T07:03:53.069Z,103203.13
2023-02-08T07:06:21.527Z,103192.28
2023-02-08T07:08:49.234Z,103214.31
2023-02-08T07:11:19.720Z,103212.28
2023-02-08T07:13:48.367Z,103212.28
2023-02-08T07:16:17.919Z,103206.25
2023-02-08T07:18:45.851Z,103210.44
2023-02-08T07:21:13.811Z,103207.06
2023-02-08T07:23:41.791Z,103201.97
2023-02-08T07:26:11.936Z,103207.13
2023-02-08T07:28:40.316Z,103208.59
2023-02-08T07:31:08.983Z,103197.69
2023-02-08T07:33:39.846Z,103197.97
2023-02-08T07:36:08.910Z,103187.13
2023-02-08T07:38:36.769Z,103182.53
2023-02-08T07:41:05.837Z,103189.03
2023-02-08T07:43:34.746Z,103184.16
2023-02-08T07:46:06.861Z,103179.13
2023-02-08T07:48:34.671Z,103185.50
2023-02-08T07:51:03.955Z,103194.59
2023-02-08T07:53:32.254Z,103182.78
2023-02-08T07:56:00.246Z,103189.16
2023-02-08T07:58:28.252Z,103184.25
2023-02-08T08:00:56.065Z,103184.97
2023-02-08T08:03:24.635Z,103195.78
2023-02-08T08:05:54.899Z,103198.81
2023-02-08T08:08:24.102Z,103186.41
2023-02-08T08:10:51.812Z,103189.59
2023-02-08T08:13:19.454Z,103183.75
2023-02-08T08:15:48.150Z,103179.06
2023-02-08T08:18:15.954Z,103182.91
2023-02-08T08:20:43.665Z,103185.81
2023-02-08T08:23:11.447Z,103191.47
2023-02-08T08:25:40.536Z,103180.47
2023-02-08T08:28:08.291Z,103177.50
2023-02-08T08:30:36.167Z,103170.25
2023-02-08T08:33:03.912Z,103171.69
2023-02-08T08:35:31.582Z,103155.47
2023-02-08T08:37:59.228Z,103155.28
2023-02-08T08:40:26.964Z,103159.84
2023-02-08T08:42:56.006Z,103159.78
2023-02-08T08:45:23.711Z,103155.84
2023-02-08T08:48:51.730Z,103159.72
2023-02-08T08:51:19.530Z,103158.69
2023-02-08T08:53:47.249Z,103156.59
2023-02-08T08:56:14.984Z,103165.47
2023-02-08T08:58:43.406Z,103157.91
2023-02-08T09:01:11.158Z,103160.59
2023-02-08T09:03:38.890Z,103165.03
2023-02-08T09:06:08.237Z,103169.31
2023-02-08T09:08:35.971Z,103171.72
2023-02-08T09:11:08.033Z,103175.00
2023-02-08T09:13:37.238Z,103173.78
2023-02-08T09:16:09.155Z,103172.06
2023-02-08T09:20:46.241Z,103177.63
2023-02-08T09:23:15.097Z,103171.78
2023-02-08T09:25:42.762Z,103175.56
2023-02-08T09:28:10.497Z,103174.19
2023-02-08T09:30:38.224Z,103169.19
2023-02-08T09:33:05.969Z,103173.59
2023-02-08T09:35:33.668Z,103167.81
2023-02-08T09:38:04.517Z,103167.63
2023-02-08T09:40:38.084Z,103171.41
2023-02-08T09:43:10.146Z,103157.97
2023-02-08T09:45:54.313Z,103170.84
2023-02-08T09:48:27.776Z,103177.09
2023-02-08T09:50:57.617Z,103182.81
2023-02-08T09:53:32.599Z,103178.66
2023-02-08T09:56:02.061Z,103175.03
2023-02-08T09:58:34.165Z,103177.63
2023-02-08T10:01:04.523Z,103171.41
2023-02-08T10:03:37.032Z,103176.81
2023-02-08T10:06:06.096Z,103173.50
2023-02-08T10:08:36.200Z,103179.91
2023-02-08T10:11:10.386Z,103182.84
2023-02-08T10:13:46.211Z,103186.59
2023-02-08T10:16:21.287Z,103190.28
2023-02-08T10:18:56.052Z,103181.06
2023-02-08T10:21:33.982Z,103197.00
2023-02-08T10:24:24.241Z,103196.34
2023-02-08T10:26:57.774Z,103189.66
2023-02-08T10:29:39.592Z,103177.59
2023-02-08T10:32:18.563Z,103184.78
2023-02-08T10:34:47.999Z,103186.78
2023-02-08T10:37:18.121Z,103195.53
2023-02-08T10:39:47.728Z,103197.56
2023-02-08T10:42:17.289Z,103191.59
2023-02-08T10:44:56.884Z,103196.22
2023-02-08T10:47:34.782Z,103195.38
2023-02-08T10:50:04.787Z,103196.50
2023-02-08T10:52:32.459Z,103199.38
2023-02-08T10:55:02.302Z,103199.38
2023-02-08T10:57:33.000Z,103201.28
2023-02-08T11:00:03.412Z,103205.66
2023-02-08T11:02:33.880Z,103200.47
2023-02-08T11:05:03.596Z,103195.44
2023-02-08T11:07:34.041Z,103198.19
2023-02-08T11:10:22.344Z,103184.19
2023-02-08T11:13:01.115Z,103181.75
2023-02-08T11:15:40.974Z,103174.75
2023-02-08T11:18:19.561Z,103174.13
2023-02-08T11:20:50.018Z,103168.00
2023-02-08T11:23:22.456Z,103176.91
2023-02-08T11:25:52.549Z,103166.41
2023-02-08T11:28:25.314Z,103169.97
2023-02-08T11:30:57.915Z,103151.78
2023-02-08T11:33:27.314Z,103163.25
2023-02-08T11:36:03.255Z,103156.19
2023-02-08T11:38:32.324Z,103151.13
2023-02-08T11:41:03.385Z,103150.19
2023-02-08T11:43:32.546Z,103147.78
2023-02-08T11:46:00.891Z,103140.06
2023-02-08T11:48:37.566Z,103137.41
2023-02-08T11:51:05.591Z,103137.41
2023-02-08T11:53:37.745Z,103130.44
2023-02-08T11:56:15.783Z,103139.34
2023-02-08T11:58:43.592Z,103135.03
2023-02-08T12:01:20.094Z,103116.66
2023-02-08T12:03:50.197Z,103118.50
2023-02-08T12:06:34.212Z,103125.63
2023-02-08T12:09:06.316Z,103117.84
2023-02-08T12:11:41.391Z,103108.19
2023-02-08T12:14:36.746Z,103111.78
2023-02-08T12:17:16.769Z,103102.19
2023-02-08T12:20:22.593Z,103101.41
2023-02-08T12:22:55.753Z,103101.44
2023-02-08T12:25:28.846Z,103092.72
2023-02-08T12:28:02.790Z,103091.91
2023-02-08T12:30:34.455Z,103078.78
2023-02-08T12:33:17.254Z,103071.84
2023-02-08T12:36:06.981Z,103066.63
2023-02-08T12:39:19.638Z,103070.22
2023-02-08T12:41:56.231Z,103065.06
2023-02-08T12:44:33.519Z,103054.59
2023-02-08T12:47:07.295Z,103056.34
2023-02-08T12:49:49.954Z,103050.22
2023-02-08T12:52:26.965Z,103049.38
2023-02-08T12:54:58.715Z,103039.78
2023-02-08T12:57:29.617Z,103044.16
2023-02-08T13:00:02.807Z,103035.47
2023-02-08T13:02:33.693Z,103025.00
2023-02-08T13:05:04.939Z,103019.78
2023-02-08T13:07:35.020Z,103017.16
2023-02-08T13:10:06.476Z,103017.16
2023-02-08T13:12:35.429Z,103001.47
2023-02-08T13:15:11.874Z,103000.59
2023-02-08T13:17:47.114Z,102995.38
2023-02-08T13:20:26.987Z,102992.72
2023-02-08T13:22:57.771Z,102991.00
2023-02-08T13:25:30.449Z,102988.38
2023-02-08T13:28:01.917Z,102984.03
2023-02-08T13:30:32.834Z,102977.91
2023-02-08T13:33:06.732Z,102975.31
2023-02-08T13:35:34.909Z,102970.06
2023-02-08T13:38:04.881Z,102972.69
2023-02-08T13:40:34.199Z,102970.94
2023-02-08T13:43:03.698Z,102966.56
2023-02-08T13:45:36.702Z,102965.69
2023-02-08T13:48:06.511Z,102946.50
2023-02-08T13:50:44.088Z,102953.50
2023-02-08T13:53:12.708Z,102951.75
2023-02-08T13:56:08.308Z,102941.28
2023-02-08T13:59:04.752Z,102932.56
2023-02-08T14:01:36.071Z,102932.56
2023-02-08T14:04:39.394Z,102929.06
2023-02-08T14:07:15.261Z,102930.81
2023-02-08T14:09:50.234Z,102925.56
2023-02-08T14:12:24.824Z,102911.63
2023-02-08T14:15:29.740Z,102913.38
2023-02-08T14:17:59.757Z,102915.97
2023-02-08T14:20:30.754Z,102919.47
2023-02-08T14:22:59.875Z,102911.59
2023-02-08T14:25:29.260Z,102909.88
2023-02-08T14:27:59.086Z,102905.50
2023-02-08T14:30:30.349Z,102904.63
2023-02-08T14:33:16.370Z,102898.56
2023-02-08T14:35:52.280Z,102895.91
2023-02-08T14:38:38.234Z,102893.28
2023-02-08T14:41:05.923Z,102899.41
2023-02-08T14:43:35.677Z,102894.19
2023-02-08T14:46:43.324Z,102884.56
2023-02-08T14:49:14.233Z,102878.47
2023-02-08T14:51:44.148Z,102878.47
2023-02-08T14:54:22.126Z,102880.22
2023-02-08T14:56:56.442Z,102870.63
2023-02-08T14:59:26.780Z,102862.78
2023-02-08T15:01:57.872Z,102854.06
2023-02-08T15:04:27.492Z,102856.69
2023-02-08T15:07:14.658Z,102848.81
2023-02-08T15:09:43.509Z,102849.69
2023-02-08T15:12:25.710Z,102849.69
2023-02-08T15:14:55.182Z,102841.84
2023-02-08T15:17:31.269Z,102836.63
2023-02-08T15:20:00.934Z,102827.91
2023-02-08T15:22:34.984Z,102817.44
2023-02-08T15:25:05.708Z,102813.97
2023-02-08T15:27:34.975Z,102804.31
2023-02-08T15:30:02.720Z,102806.03
2023-02-08T15:32:31.056Z,102792.97
2023-02-08T15:35:01.687Z,102786.88
2023-02-08T15:37:32.606Z,102786.88
2023-02-08T15:40:01.272Z,102784.25
2023-02-08T15:42:32.793Z,102774.66
2023-02-08T15:45:02.526Z,102774.66
2023-02-08T15:47:32.911Z,102773.78
2023-02-08T15:50:02.638Z,102776.41
2023-02-08T15:52:32.568Z,102775.44
2023-02-08T15:55:00.378Z,102767.59
2023-02-08T15:57:35.619Z,102760.63
2023-02-08T16:00:05.435Z,102764.94
2023-02-08T16:02:35.225Z,102763.16
2023-02-08T16:05:13.025Z,102757.91
2023-02-08T16:07:47.828Z,102756.97
2023-02-08T16:10:25.101Z,102751.69
2023-02-08T16:12:55.081Z,102754.25
2023-02-08T16:15:40.346Z,102756.00
2023-02-08T16:18:32.422Z,102753.34
2023-02-08T16:21:03.022Z,102741.88
2023-02-08T16:23:32.535Z,102744.38
2023-02-08T16:26:12.019Z,102739.00
2023-02-08T16:28:40.648Z,102738.03
2023-02-08T16:31:08.887Z,102728.41
2023-02-08T16:33:39.584Z,102735.22
2023-02-08T16:36:08.688Z,102735.09
2023-02-08T16:38:36.366Z,102736.72
2023-02-08T16:41:13.049Z,102727.91
2023-02-08T16:43:43.820Z,102721.69
2023-02-08T16:46:21.174Z,102725.00
2023-02-08T16:48:54.368Z,102722.28
2023-02-08T16:51:25.824Z,102714.28
2023-02-08T16:53:56.653Z,102718.53
2023-02-08T16:56:25.105Z,102724.50
2023-02-08T16:58:52.826Z,102724.38
2023-02-08T17:01:21.230Z,102715.56
2023-02-08T17:03:50.098Z,102725.88
2023-02-08T17:06:25.556Z,102714.50
2023-02-08T17:08:53.210Z,102717.78
2023-02-08T17:11:20.945Z,102709.09
2023-02-08T17:13:48.624Z,102709.91
2023-02-08T17:16:19.429Z,102718.50
2023-02-08T17:18:47.756Z,102709.84
2023-02-08T17:21:15.743Z,102705.38
2023-02-08T17:23:45.247Z,102696.78
2023-02-08T17:26:16.331Z,102701.91
2023-02-08T17:28:44.596Z,102691.53
2023-02-08T17:31:13.177Z,102693.25
2023-02-08T17:33:41.446Z,102683.63
2023-02-08T17:36:10.030Z,102691.25
2023-02-08T17:38:39.215Z,102680.66
2023-02-08T17:41:08.803Z,102683.03
2023-02-08T17:43:37.227Z,102679.38
2023-02-08T17:46:10.206Z,102682.81
2023-02-08T17:48:37.944Z,102692.25
2023-02-08T17:51:09.640Z,102685.13
2023-02-08T17:53:42.312Z,102678.03
2023-02-08T17:56:13.887Z,102674.50
2023-02-08T17:58:41.703Z,102673.47
2023-02-08T18:01:17.235Z,102682.88
2023-02-08T18:03:45.583Z,102687.88
2023-02-08T18:06:13.962Z,102686.28
2023-02-08T18:08:42.089Z,102697.59
2023-02-08T18:11:15.881Z,102697.66
2023-02-08T18:13:44.855Z,102692.41
2023-02-08T18:16:15.216Z,102687.31
2023-02-08T18:18:44.766Z,102682.09
2023-02-08T18:21:15.729Z,102675.97
2023-02-08T18:23:44.095Z,102678.41
2023-02-08T18:26:15.518Z,102671.28
2023-02-08T18:28:43.426Z,102659.09
2023-02-08T18:31:14.461Z,102659.91
2023-02-08T18:33:43.418Z,102659.69
2023-02-08T18:36:12.443Z,102658.63
2023-02-08T18:38:40.634Z,102653.31
2023-02-08T18:41:09.541Z,102655.00
2023-02-08T18:43:40.183Z,102641.81
2023-02-08T18:46:10.151Z,102650.34
2023-02-08T18:48:37.930Z,102652.78
2023-02-08T18:51:06.970Z,102641.38
2023-02-08T18:53:36.781Z,102645.56
2023-02-08T18:56:06.533Z,102639.38
2023-02-08T18:58:34.587Z,102642.84
2023-02-08T19:01:08.184Z,102649.06
2023-02-08T19:03:36.781Z,102649.06
2023-02-08T19:06:08.824Z,102648.22
2023-02-08T19:08:37.607Z,102647.47
2023-02-08T19:11:05.951Z,102642.50
2023-02-08T19:13:35.473Z,102639.13
2023-02-08T19:16:03.214Z,102646.09
2023-02-08T19:18:32.203Z,102646.13
2023-02-08T19:21:04.851Z,102647.09
2023-02-08T19:23:32.591Z,102641.06
2023-02-08T19:26:02.521Z,102636.66
2023-02-08T19:28:32.587Z,102637.59
2023-02-08T19:31:04.847Z,102637.59
2023-02-08T19:33:33.904Z,102632.44
2023-02-08T19:36:08.172Z,102638.53
2023-02-08T19:38:36.241Z,102629.03
2023-02-08T19:41:04.057Z,102632.47
2023-02-08T19:43:31.975Z,102637.59
2023-02-08T19:46:01.775Z,102633.19
2023-02-08T19:48:29.501Z,102630.50
2023-02-08T19:51:00.225Z,102633.78
2023-02-08T19:53:28.586Z,102628.50
2023-02-08T19:55:57.284Z,102630.09
2023-02-08T19:58:25.096Z,102632.66
2023-02-08T20:00:53.332Z,102627.50
2023-02-08T20:03:22.390Z,102624.84
2023-02-08T20:05:50.931Z,102622.25
2023-02-08T20:08:20.553Z,102621.38
2023-02-08T20:10:50.436Z,102623.88
2023-02-08T20:13:18.129Z,102625.59
2023-02-08T20:15:46.403Z,102629.03
2023-02-08T20:18:15.327Z,102635.03
2023-02-08T20:20:45.272Z,102627.25
2023-02-08T20:23:22.361Z,102625.53
2023-02-08T20:25:51.783Z,102633.06
2023-02-08T20:28:19.526Z,102614.78
2023-02-08T20:30:47.279Z,102621.56
2023-02-08T20:33:15.850Z,102630.97
2023-02-08T20:35:43.807Z,102629.16
2023-02-08T20:38:11.631Z,102627.41
2023-02-08T20:40:39.341Z,102626.53
2023-02-08T20:43:08.333Z,102627.53
2023-02-08T20:45:36.013Z,102620.84
2023-02-08T20:48:03.716Z,102622.78
2023-02-08T20:50:33.158Z,102627.28
2023-02-08T20:53:00.894Z,102625.66
2023-02-08T20:55:28.557Z,102625.56
2023-02-08T20:57:56.302Z,102626.47
2023-02-08T21:00:33.478Z,102616.13
2023-02-08T21:03:07.907Z,102609.06
2023-02-08T21:05:35.579Z,102604.59
2023-02-08T21:08:03.281Z,102598.44
2023-02-08T21:10:30.947Z,102599.41
2023-02-08T21:12:59.039Z,102602.00
2023-02-08T21:15:28.089Z,102606.44
2023-02-08T21:17:55.978Z,102599.69
2023-02-08T21:20:23.711Z,102603.19
2023-02-08T21:22:51.563Z,102601.53
2023-02-08T21:25:19.278Z,102601.56
2023-02-08T21:27:47.101Z,102600.78
2023-02-08T21:30:15.092Z,102593.78
2023-02-08T21:32:44.063Z,102598.03
2023-02-08T21:35:11.845Z,102583.34
2023-02-08T21:37:39.576Z,102593.78
2023-02-08T21:40:07.702Z,102588.59
2023-02-08T21:42:35.462Z,102580.81
2023-02-08T21:45:03.177Z,102577.28
2023-02-08T21:47:30.860Z,102583.34
2023-02-08T21:50:17.565Z,102579.00
2023-02-08T21:53:02.839Z,102579.88
2023-02-08T21:55:30.561Z,102575.75
2023-02-08T21:57:58.196Z,102574.16
2023-02-08T22:00:26.139Z,102575.00
2023-02-08T22:02:53.859Z,102569.84
2023-02-08T22:05:22.961Z,102571.63
2023-02-08T22:07:52.465Z,102573.50
2023-02-08T22:10:21.944Z,102572.59
2023-02-08T22:12:52.408Z,102576.06
2023-02-08T22:15:22.153Z,102561.38
2023-02-08T22:17:53.582Z,102570.06
2023-02-08T22:20:21.385Z,102564.09
2023-02-08T22:22:53.079Z,102567.66
2023-02-08T22:25:22.492Z,102567.63
2023-02-08T22:27:50.267Z,102562.41
2023-02-08T22:30:19.584Z,102556.38
2023-02-08T22:32:49.011Z,102556.44
2023-02-08T22:35:18.233Z,102545.31
2023-02-08T22:37:45.989Z,102551.41
2023-02-08T22:40:15.692Z,102544.53
2023-02-08T22:42:43.580Z,102538.53
2023-02-08T22:45:11.687Z,102534.25
2023-02-08T22:47:39.708Z,102535.88
2023-02-08T22:50:08.012Z,102530.63
2023-02-08T22:52:35.902Z,102524.47
2023-02-08T22:55:04.224Z,102530.41
2023-02-08T22:57:33.460Z,102528.59
2023-02-08T23:00:01.164Z,102532.16
2023-02-08T23:02:29.068Z,102537.44
2023-02-08T23:04:56.866Z,102528.81
2023-02-08T23:07:24.544Z,102528.78
2023-02-08T23:09:52.223Z,102528.75
2023-02-08T23:12:19.941Z,102523.66
2023-02-08T23:14:49.714Z,102515.03
2023-02-08T23:17:17.655Z,102523.66
2023-02-08T23:19:45.314Z,102517.69
2023-02-08T23:22:13.160Z,102515.94
2023-02-08T23:24:40.855Z,102512.34
2023-02-08T23:27:08.572Z,102515.72
2023-02-08T23:29:36.462Z,102513.03
2023-02-08T23:32:05.520Z,102506.03
2023-02-08T23:34:35.196Z,102512.13
2023-02-08T23:37:03.006Z,102501.66
2023-02-08T23:39:33.821Z,102499.09
2023-02-08T23:42:01.764Z,102486.13
2023-02-08T23:44:29.452Z,102495.56
2023-02-08T23:46:57.136Z,102485.25
2023-02-08T23:49:26.212Z,102491.31
2023-02-08T23:51:54.275Z,102474.06
2023-02-08T23:54:21.970Z,102473.19
2023-02-08T23:56:51.945Z,102468.88
2023-02-08T23:59:19.702Z,102469.91
